• Join FlightAware (Why Join?)
  • Login
  • US Flag 
09:55AM EDT


 

Airport Tracker/Info


-or-


 

Live Flight TrackerFlight Track Log ✈ SWA2975 ✈ 03-Jul-2013 ✈ KSLC - KMDW

Flight Track Log - Related Links

Times and Time Zones

All times are in EDT time to prevent confusion due to time zone crossing. See the SWA2975 flight status page for this flight to view local times or setup timezone preferences in your user account.

Time Position Orientation Groundspeed Altitude Reporting Facility
EDT Latitude Longitude Course Direction KTS MPH feet Rate Location/Type
06:34PM 40.8070 -111.9770 355° North 182 209 4,700  Level FlightAware
06:34PM 40.8300 -111.9800 354° North 189 217 5,800 1,560 Climbing FlightAware
06:35PM 40.8620 -111.9840 355° North 228 262 6,300 1,500 Climbing FlightAware
06:35PM 40.8880 -111.9880 353° North 239 275 7,200 2,400 Climbing FlightAware
06:35PM 40.9050 -111.9900 355° North 237 273 7,900 2,280 Climbing FlightAware
06:36PM 40.9370 -111.9940 355° North 253 291 8,900 2,100 Climbing FlightAware
06:36PM 40.9820 -111.9850 North 268 308 10,300 2,220 Climbing FlightAware
06:37PM 40.9970 -111.9670 42° Northeast 271 312 11,000 2,580 Climbing FlightAware
06:37PM 41.0080 -111.9210 72° East 285 328 12,200 2,220 Climbing FlightAware
06:37PM 41.0050 -111.9010 101° East 294 338 12,500 1,740 Climbing FlightAware
06:38PM 40.9800 -111.8280 114° Southeast 321 369 13,800 1,920 Climbing FlightAware
06:39PM 40.9560 -111.7620 116° Southeast 334 384 15,100 2,400 Climbing FlightAware
06:39PM 40.9310 -111.6890 114° Southeast 331 381 16,900 2,400 Climbing FlightAware
06:40PM 40.9030 -111.6100 115° Southeast 345 397 18,400 1,920 Climbing FlightAware
06:41PM 40.8800 -111.5400 113° Southeast 358 412 19,400 1,980 Climbing FlightAware
06:41PM 40.8540 -111.4620 114° Southeast 360 414 20,900 2,220 Climbing FlightAware
06:42PM 40.8220 -111.3810 118° Southeast 364 419 22,400 1,920 Climbing FlightAware
06:42PM 40.7840 -111.3420 142° Southeast 373 429 23,200 1,020 Climbing FlightAware
06:43PM 40.7260 -111.2860 144° Southeast 404 465 23,600 1,020 Climbing FlightAware
06:44PM 40.6580 -111.2430 154° Southeast 411 473 24,600 960 Climbing FlightAware
06:44PM 40.5820 -111.1980 156° South 434 499 25,000 900 Climbing FlightAware
06:45PM 40.5560 -111.1690 140° Southeast 434 499 25,500 1,980 Climbing FlightAware
06:45PM 40.5410 -111.1370 122° Southeast 432 497 26,000 1,980 Climbing FlightAware
06:46PM 40.5070 -111.0420 115° Southeast 429 494 27,300 1,680 Climbing FlightAware
06:46PM 40.4730 -110.9480 115° Southeast 431 496 28,300 1,560 Climbing FlightAware
06:47PM 40.4320 -110.8410 117° Southeast 431 496 29,600 1,200 Climbing FlightAware
06:48PM 40.4070 -110.7770 117° Southeast 441 507 29,900 840 Climbing FlightAware
06:48PM 40.3770 -110.6960 116° Southeast 451 519 30,500 1,020 Climbing FlightAware
06:49PM 40.3370 -110.5960 118° Southeast 456 525 31,100 900 Climbing FlightAware
06:49PM 40.3020 -110.5070 117° Southeast 458 527 31,800 1,140 Climbing FlightAware
06:50PM 40.2580 -110.3960 117° Southeast 462 532 32,700 1,200 Climbing FlightAware
06:51PM 40.2110 -110.2820 118° Southeast 462 532 33,600 1,080 Climbing FlightAware
06:51PM 40.1720 -110.1840 117° Southeast 461 531 34,300 1,020 Climbing FlightAware
06:52PM 40.1380 -110.0980 117° Southeast 461 531 34,900 540 Climbing FlightAware
06:53PM 40.0990 -109.9910 115° Southeast 456 525 35,000 60 Climbing FlightAware
06:53PM 40.0980 -109.9520 92° East 445 512 35,000  Level FlightAware
06:53PM 40.1060 -109.9120 75° East 438 504 35,000  Level FlightAware
06:54PM 40.1240 -109.8600 66° East 442 509 35,000  Level FlightAware
06:54PM 40.1590 -109.7510 67° East 443 510 35,000  Level FlightAware
06:55PM 40.1830 -109.6730 68° East 444 511 35,000  Level FlightAware
06:56PM 40.2120 -109.5780 68° East 443 510 35,000  Level FlightAware
06:56PM 40.2420 -109.4800 68° East 442 509 35,000  Level FlightAware
06:57PM 40.2760 -109.3700 68° East 442 509 35,000  Level FlightAware
06:58PM 40.3060 -109.2720 68° East 436 502 35,000  Level FlightAware
06:58PM 40.3420 -109.1540 68° East 435 501 35,000  Level FlightAware
06:59PM 40.3730 -109.0530 68° East 432 497 35,000  Level FlightAware
07:00PM 40.4050 -108.9500 68° East 428 493 35,000  Level FlightAware
07:00PM 40.4330 -108.8560 69° East 428 493 35,000  Level FlightAware
07:01PM 40.4570 -108.7760 68° East 427 491 35,000  Level FlightAware
07:02PM 40.4810 -108.6980 68° East 427 491 35,000  Level FlightAware
07:02PM 40.5130 -108.5910 68° East 434 499 35,000  Level FlightAware
07:03PM 40.5390 -108.5050 68° East 435 501 35,000  Level FlightAware
07:04PM 40.5690 -108.4010 69° East 437 503 35,000  Level FlightAware
07:04PM 40.5970 -108.3070 69° East 436 502 35,000  Level FlightAware
07:05PM 40.6250 -108.2140 68° East 435 501 35,000  Level FlightAware
07:06PM 40.6590 -108.0960 69° East 437 503 35,000  Level FlightAware
07:06PM 40.6880 -107.9970 69° East 438 504 35,000  Level FlightAware
07:07PM 40.7150 -107.9030 69° East 432 497 35,000  Level FlightAware
07:08PM 40.7440 -107.8070 68° East 430 495 35,000  Level FlightAware
07:08PM 40.7750 -107.6990 69° East 429 494 35,000  Level FlightAware
07:09PM 40.8030 -107.6000 69° East 428 493 35,000  Level FlightAware
07:10PM 40.8280 -107.5140 69° East 427 491 35,000  Level FlightAware
07:10PM 40.8570 -107.4140 69° East 427 491 35,000  Level FlightAware
07:11PM 40.8820 -107.3290 69° East 427 491 35,000  Level FlightAware
07:12PM 40.9030 -107.2550 69° East 427 491 35,000  Level FlightAware
07:13PM 40.9320 -107.1550 69° East 427 491 35,000  Level FlightAware
07:13PM 40.9540 -107.0800 69° East 427 491 35,000  Level FlightAware
07:14PM 40.9760 -107.0060 68° East 427 491 35,000  Level FlightAware
07:15PM 41.0040 -106.9060 70° East 427 491 35,000  Level FlightAware
07:15PM 41.0530 -106.7150 71° East 426 490 35,000  Level FlightAware
07:16PM 41.0840 -106.6050 69° East 429 494 35,000  Level FlightAware
07:16PM 41.1050 -106.5280 70° East 429 494 35,000  Level FlightAware
07:17PM 41.1330 -106.4250 70° East 429 494 35,000  Level FlightAware
07:18PM 41.1670 -106.3030 70° East 436 502 35,000  Level FlightAware
07:19PM 41.2050 -106.1620 70° East 434 499 35,000  Level FlightAware
07:19PM 41.2320 -106.0620 70° East 434 499 35,000  Level FlightAware
07:20PM 41.2590 -105.9640 70° East 435 501 35,000  Level FlightAware
07:21PM 41.2830 -105.8730 71° East 436 502 35,000  Level FlightAware
07:21PM 41.3140 -105.7580 70° East 438 504 35,000  Level FlightAware
07:22PM 41.3410 -105.6540 71° East 435 501 35,000  Level FlightAware
07:23PM 41.3650 -105.5670 70° East 434 499 35,000  Level FlightAware
07:24PM 41.3980 -105.4390 71° East 432 497 35,000  Level FlightAware
07:24PM 41.4240 -105.3420 70° East 431 496 35,000  Level FlightAware
07:25PM 41.4540 -105.2280 71° East 427 491 35,000  Level FlightAware
07:25PM 41.4720 -105.1590 71° East 428 493 35,000  Level FlightAware
07:26PM 41.5000 -105.0520 71° East 428 493 35,000  Level FlightAware
07:27PM 41.5260 -104.9500 71° East 427 491 35,000  Level FlightAware
07:28PM 41.5530 -104.8470 71° East 425 489 35,000  Level FlightAware
07:28PM 41.5780 -104.7480 71° East 425 489 35,000  Level FlightAware
07:29PM 41.6050 -104.6420 71° East 425 489 35,000  Level FlightAware
07:30PM 41.6280 -104.5520 71° East 427 491 35,000  Level FlightAware
07:30PM 41.6560 -104.4430 71° East 428 493 35,000  Level FlightAware
07:31PM 41.6870 -104.3210 71° East 427 491 35,000  Level FlightAware
07:32PM 41.7090 -104.2310 72° East 428 493 35,000  Level FlightAware
07:32PM 41.7340 -104.1330 71° East 425 489 35,000  Level FlightAware
07:33PM 41.7600 -104.0280 72° East 423 487 35,000  Level FlightAware
07:34PM 41.7870 -103.9180 72° East 423 487 35,000  Level FlightAware
07:34PM 41.8090 -103.8310 71° East 424 488 35,000  Level FlightAware
07:35PM 41.8370 -103.7150 72° East 422 486 35,000  Level FlightAware
07:36PM 41.8580 -103.6300 72° East 424 488 35,000  Level FlightAware
07:36PM 41.8810 -103.5370 72° East 425 489 35,000  Level FlightAware
07:37PM 41.8860 -103.3770 88° East 456 525 35,000  Level FlightAware
07:38PM 41.8770 -103.2690 96° East 457 526 35,000  Level FlightAware
07:39PM 41.8670 -103.1440 96° East 456 525 35,000  Level FlightAware
07:39PM 41.8600 -103.0470 96° East 456 525 35,000  Level FlightAware
07:40PM 41.8460 -102.8850 97° East 454 522 35,000  Level FlightAware
07:41PM 41.8400 -102.7990 95° East 454 522 35,000  Level FlightAware
07:42PM 41.8270 -102.6610 97° East 449 517 35,000  Level FlightAware
07:42PM 41.8220 -102.6020 96° East 449 517 35,000  Level FlightAware
07:43PM 41.8050 -102.4090 97° East 448 516 35,000  Level FlightAware
07:44PM 41.7910 -102.2530 97° East 446 513 35,000  Level FlightAware
07:45PM 41.7830 -102.1600 97° East 446 513 35,000  Level FlightAware
07:45PM 41.7760 -102.0710 96° East 446 513 35,000  Level FlightAware
07:46PM 41.7670 -101.9610 96° East 446 513 35,000  Level FlightAware
07:47PM 41.7610 -101.8820 96° East 446 513 35,000  Level FlightAware
07:47PM 41.7520 -101.7630 96° East 446 513 35,000  Level FlightAware
07:48PM 41.7450 -101.6790 96° East 446 513 35,000  Level FlightAware
07:49PM 41.7370 -101.5690 96° East 446 513 35,000  Level FlightAware
07:50PM 41.7280 -101.4560 96° East 446 513 35,000  Level FlightAware
07:50PM 41.7210 -101.3700 96° East 446 513 35,000  Level FlightAware
07:51PM 41.7130 -101.2630 96° East 446 513 35,000  Level FlightAware
07:52PM 41.7060 -101.1780 96° East 446 513 35,000  Level FlightAware
07:52PM 41.6990 -101.0900 96° East 446 513 35,000  Level FlightAware
07:53PM 41.6900 -100.9800 96° East 446 513 35,000  Level FlightAware
07:54PM 41.6840 -100.8930 95° East 446 513 35,000  Level FlightAware
07:54PM 41.6790 -100.8350 97° East 446 513 35,000  Level FlightAware
07:55PM 41.6197 -100.4739 97° East 445 512 35,000  Level Denver Center
07:56PM 41.5989 -100.2906 99° East 444 511 35,000  Level Denver Center
07:57PM 41.5833 -100.1358 98° East 441 507 35,000  Level Denver Center
07:58PM 41.5664 -99.9811 98° East 440 506 35,000  Level Denver Center
07:59PM 41.5458 -99.7997 99° East 441 507 35,000  Level Denver Center
08:00PM 41.5264 -99.6269 98° East 446 513 35,000  Level Denver Center
08:01PM 41.5086 -99.4653 98° East 443 510 35,000  Level Denver Center
08:02PM 41.4892 -99.3008 99° East 446 513 35,000  Level Denver Center
08:03PM 41.4708 -99.1381 98° East 445 512 35,000  Level Denver Center
08:04PM 41.4517 -98.9736 99° East 445 512 35,000  Level Denver Center
08:05PM 41.4367 -98.8614 100° East 445 512 35,000  Level Minneapolis Center
08:10PM 41.3870 -97.9980 100° East 433 498 35,000  Level FlightAware
08:11PM 41.3920 -97.8810 87° East 434 499 35,000  Level FlightAware
08:11PM 41.3940 -97.7800 88° East 435 501 35,000  Level FlightAware
08:12PM 41.3980 -97.6150 88° East 437 503 35,000  Level FlightAware
08:13PM 41.4010 -97.4940 88° East 439 505 35,000  Level FlightAware
08:14PM 41.4040 -97.3810 88° East 439 505 35,000  Level FlightAware
08:15PM 41.4070 -97.2750 88° East 440 506 35,000  Level FlightAware
08:15PM 41.4100 -97.1600 88° East 440 506 35,000  Level FlightAware
08:16PM 41.4120 -97.0370 89° East 440 506 35,000  Level FlightAware
08:17PM 41.4150 -96.9290 88° East 440 506 35,000  Level FlightAware
08:17PM 41.4170 -96.8100 89° East 439 505 35,000  Level FlightAware
08:18PM 41.4190 -96.7040 89° East 438 504 35,000  Level FlightAware
08:19PM 41.4210 -96.5840 89° East 438 504 35,000  Level FlightAware
08:19PM 41.4230 -96.4740 89° East 438 504 35,000  Level FlightAware
08:20PM 41.4250 -96.3610 89° East 438 504 35,000  Level FlightAware
08:21PM 41.4270 -96.2510 89° East 440 506 35,000  Level FlightAware
08:22PM 41.4290 -96.1320 89° East 441 507 35,000  Level FlightAware
08:22PM 41.4300 -96.0200 89° East 443 510 35,000  Level FlightAware
08:23PM 41.4320 -95.9210 88° East 443 510 35,000  Level FlightAware
08:24PM 41.4330 -95.8140 89° East 444 511 35,000  Level FlightAware
08:24PM 41.4340 -95.7140 89° East 444 511 35,000  Level FlightAware
08:25PM 41.4350 -95.6020 89° East 443 510 35,000  Level FlightAware
08:26PM 41.4360 -95.4850 89° East 440 506 35,000  Level FlightAware
08:26PM 41.4370 -95.4130 89° East 440 506 35,000  Level FlightAware
08:27PM 41.4380 -95.3120 89° East 440 506 35,000  Level FlightAware
08:27PM 41.4380 -95.1800 90° East 438 504 35,000  Level FlightAware
08:28PM 41.4390 -95.0840 89° East 438 504 35,000  Level FlightAware
08:29PM 41.4400 -94.9390 89° East 433 498 35,000  Level FlightAware
08:30PM 41.4410 -94.8170 89° East 432 497 35,000  Level FlightAware
08:31PM 41.4410 -94.6680 90° East 431 496 35,000  Level FlightAware
08:31PM 41.4420 -94.5860 89° East 431 496 35,000  Level FlightAware
08:32PM 41.4430 -94.5050 89° East 431 496 35,000  Level FlightAware
08:33PM 41.4410 -94.3280 91° East 433 498 35,000  Level FlightAware
08:34PM 41.4400 -94.2120 91° East 433 498 35,000  Level FlightAware
08:34PM 41.4400 -94.1210 90° East 433 498 35,000  Level FlightAware
08:35PM 41.4400 -94.0200 90° East 433 498 35,000  Level FlightAware
08:36PM 41.4390 -93.8570 90° East 434 499 35,000  Level FlightAware
08:36PM 41.4380 -93.7400 91° East 434 499 35,000  Level FlightAware
08:37PM 41.4370 -93.6440 91° East 435 501 35,000  Level FlightAware
08:38PM 41.4310 -93.5280 94° East 437 503 35,000  Level FlightAware
08:38PM 41.4260 -93.4310 94° East 438 504 35,000  Level FlightAware
08:39PM 41.4190 -93.3130 94° East 438 504 35,000  Level FlightAware
08:40PM 41.4130 -93.2050 94° East 436 502 35,000  Level FlightAware
08:41PM 41.4070 -93.0870 94° East 436 502 35,000  Level FlightAware
08:41PM 41.4020 -92.9960 94° East 436 502 35,000  Level FlightAware
08:42PM 41.3960 -92.8930 94° East 437 503 35,000  Level FlightAware
08:42PM 41.3900 -92.7770 94° East 436 502 35,000  Level FlightAware
08:43PM 41.3840 -92.6800 95° East 436 502 35,000  Level FlightAware
08:44PM 41.3770 -92.5700 95° East 436 502 35,000  Level FlightAware
08:44PM 41.3710 -92.4630 94° East 437 503 35,000  Level FlightAware
08:45PM 41.3640 -92.3440 94° East 438 504 35,000  Level FlightAware
08:46PM 41.3570 -92.2360 95° East 441 507 35,000 -480 Level FlightAware
08:46PM 41.3510 -92.1390 95° East 441 507 34,400 -1,020 Descending FlightAware
08:47PM 41.3440 -92.0290 95° East 436 502 33,700 -1,080 Descending FlightAware
08:48PM 41.3350 -91.9020 95° East 430 495 32,900 -1,020 Descending FlightAware
08:48PM 41.3290 -91.8130 95° East 425 489 32,400 -1,020 Descending FlightAware
08:49PM 41.3210 -91.6930 95° East 418 481 31,600 -1,080 Descending FlightAware
08:50PM 41.3160 -91.6080 94° East 421 484 31,000 -540 Descending FlightAware
08:50PM 41.3090 -91.5090 95° East 429 494 31,000  Level FlightAware
08:51PM 41.3010 -91.3920 95° East 426 490 31,000  Level FlightAware
08:52PM 41.2930 -91.2870 96° East 426 490 31,000 -540 Level FlightAware
08:52PM 41.2860 -91.1880 95° East 421 484 30,300 -1,620 Descending FlightAware
08:53PM 41.2780 -91.0780 95° East 412 474 28,900 -1,920 Descending FlightAware
08:54PM 41.2710 -90.9810 95° East 406 467 27,700 -1,920 Descending FlightAware
08:55PM 41.2630 -90.8680 95° East 398 458 26,200 -1,980 Descending FlightAware
08:55PM 41.2570 -90.7860 96° East 393 452 25,100 -1,920 Descending FlightAware
08:56PM 41.2490 -90.6870 96° East 387 445 23,800 -1,620 Descending FlightAware
08:56PM 41.2430 -90.5940 95° East 434 499 23,000 -600 Descending FlightAware
08:57PM 41.2560 -90.4700 82° East 456 525 23,000  Level FlightAware
08:58PM 41.2740 -90.3520 78° East 457 526 23,000  Level FlightAware
08:59PM 41.2900 -90.2380 79° East 455 524 23,000  Level FlightAware
08:59PM 41.3030 -90.1470 79° East 455 524 23,000 -1,200 Level FlightAware
09:00PM 41.3170 -90.0500 79° East 446 513 21,700 -2,400 Descending FlightAware
09:01PM 41.3340 -89.9280 79° East 448 516 19,800 -2,640 Descending FlightAware
09:01PM 41.3500 -89.8110 80° East 435 501 17,900 -2,280 Descending FlightAware
09:02PM 41.3620 -89.7250 79° East 421 484 16,900 -1,260 Descending FlightAware
09:03PM 41.3780 -89.6080 80° East 414 476 16,200 -1,020 Descending FlightAware
09:03PM 41.3930 -89.4970 80° East 408 470 15,400 -1,020 Descending FlightAware
09:04PM 41.4060 -89.3980 80° East 404 465 14,800 -1,020 Descending FlightAware
09:05PM 41.4200 -89.3000 79° East 400 460 14,100 -1,080 Descending FlightAware
09:05PM 41.4340 -89.1940 80° East 393 452 13,300 -1,620 Descending FlightAware
09:06PM 41.4450 -89.1080 80° East 383 441 12,000 -2,040 Descending FlightAware
09:07PM 41.4570 -89.0140 80° East 368 423 10,700 -1,320 Descending FlightAware
09:07PM 41.4690 -88.9240 80° East 330 380 10,200 -600 Descending FlightAware
09:08PM 41.4800 -88.8450 79° East 298 343 9,900 -840 Descending FlightAware
09:09PM 41.4860 -88.7970 81° East 295 339 9,300 -1,440 Descending FlightAware
09:09PM 41.4920 -88.7460 81° East 293 337 8,600 -1,500 Descending FlightAware
09:10PM 41.4990 -88.6940 80° East 290 334 7,900 -1,440 Descending FlightAware
09:10PM 41.5060 -88.6420 80° East 288 331 7,200 -1,440 Descending FlightAware
09:10PM 41.5080 -88.6210 83° East 286 329 6,900 -1,500 Descending FlightAware
09:10PM 41.5120 -88.5930 79° East 285 328 6,500 -1,380 Descending FlightAware
09:11PM 41.5200 -88.5440 78° East 284 327 5,900 -660 Descending FlightAware
09:11PM 41.5270 -88.4970 79° East 279 321 5,900  Level FlightAware
09:12PM 41.5310 -88.4780 74° East 278 320 5,900 -480 Level FlightAware
09:12PM 41.5380 -88.4310 79° East 280 322 5,600 -900 Descending FlightAware
09:13PM 41.5460 -88.3830 77° East 279 321 5,100 -780 Descending FlightAware
09:13PM 41.5500 -88.3340 84° East 281 323 4,900 -300 Descending FlightAware
09:13PM 41.5510 -88.3150 86° East 281 323 4,900  Level FlightAware
09:14PM 41.5530 -88.2660 87° East 279 321 4,900  Level FlightAware
09:14PM 41.5550 -88.2180 87° East 278 320 4,900  Level FlightAware
09:15PM 41.5570 -88.1690 87° East 277 319 4,900  Level FlightAware
09:15PM 41.5590 -88.1270 86° East 277 319 4,900  Level FlightAware
09:15PM 41.5600 -88.1100 85° East 277 319 4,900  Level FlightAware
09:16PM 41.5620 -88.0680 86° East 277 319 4,900  Level FlightAware
09:16PM 41.5640 -88.0310 86° East 278 320 4,900  Level FlightAware
09:16PM 41.5660 -87.9870 87° East 278 320 4,900  Level FlightAware
09:17PM 41.5680 -87.9520 86° East 278 320 4,900  Level FlightAware
09:17PM 41.5690 -87.9320 86° East 277 319 4,900 -540 Level FlightAware
09:18PM 41.5730 -87.8690 85° East 276 318 4,500 -840 Descending FlightAware
09:18PM 41.5760 -87.8280 84° East 274 315 4,100 -960 Descending FlightAware
09:18PM 41.5790 -87.7820 85° East 267 307 3,700 -780 Descending FlightAware
09:19PM 41.5880 -87.7260 78° East 249 287 3,300 -720 Descending FlightAware
09:19PM 41.5910 -87.7020 81° East 242 278 3,100 -720 Descending FlightAware
09:19PM 41.5960 -87.6880 64° Northeast 238 274 3,000 -720 Descending FlightAware
09:20PM 41.6190 -87.6540 48° Northeast 229 264 2,600 -660 Descending FlightAware
09:20PM 41.6380 -87.6270 47° Northeast 214 246 2,400 -360 Descending FlightAware
09:21PM 41.6460 -87.6150 48° Northeast 210 242 2,400  Level FlightAware
09:21PM 41.6540 -87.6070 37° Northeast 206 237 2,400  Level FlightAware
09:21PM 41.6660 -87.6060 North 195 224 2,400  Level FlightAware
09:22PM 41.6870 -87.6180 337° Northwest 180 207 2,400  Level FlightAware
09:22PM 41.7040 -87.6380 319° Northwest 175 201 2,400 -240 Level FlightAware
09:22PM 41.7190 -87.6590 314° West 165 190 2,200 -600 Descending FlightAware
09:23PM 41.7310 -87.6750 315° West 149 171 1,900 -780 Descending FlightAware
09:23PM 41.7390 -87.6880 310° West 146 168 1,700 -780 Descending FlightAware
09:24PM 41.7520 -87.7060 314° West 144 166 1,300 -420 Descending FlightAware
09:24PM 41.7640 -87.7230 313° West 145 167 1,300 -300 Level FlightAware
09:25PM 41.7825 -87.7486 313° West 160 184 1,000 -480 Descending Chicago Center